Latest Coastal Weather Observations for Yanakie

IDV60701

Issued at 8:45 pm EST Monday 21 April 2014 (issued every 10 minutes, with the page automatically refreshed every 10 minutes)

About coastal observations | Map of coastal stations | Coastal observations for VIC | Marine services | Other Formats
Station Details ID: 085301 Name: YANAKIE Lat: -38.81 Lon: 146.19 Height: 13.3 m
Data from the previous 72 hours. | See also: Recent months for locations in Victoria
Date/Time
EST
Temp

°C
Wind Pressure Rain
since 9am
mm
Weather Cloud Vis
km
Sea
Height
m
Swell
Dir
 
Speed
knots
Gust
knots
hPa Trend Height
m
Period
s
Dir
21/08:30pm 16.1 NE 4 5 1013.4 - 0.2 - - - - - - -
21/08:00pm 16.1 NE 4 7 1013.4 - 0.2 - - - - - - -
21/07:30pm 16.2 NE 4 8 1013.4 - 0.0 - - - - - - -
21/07:00pm 16.3 ENE 5 8 1013.4 - 0.0 - - - - - - -
21/06:30pm 16.5 NNE 6 10 1013.2 - 0.0 - - - - - - -
21/06:00pm 16.9 NNE 8 12 1013.2 - 0.0 - - - - - - -
21/05:30pm 16.8 NE 5 8 1013.5 - 0.0 - - - - - - -
21/05:00pm 16.7 NE 4 8 1013.8 - 0.0 - - - - - - -
21/04:30pm 17.2 ENE 3 5 1014.0 - 0.0 - - - - - - -
21/04:00pm 18.6 N 1 3 1014.5 - 0.0 - - - - - - -
21/03:30pm 18.0 NNW 2 3 1015.0 - 0.0 - - - - - - -
21/03:00pm 18.6 NW 5 8 1015.7 - 0.0 - - - - - - -
21/02:30pm 19.8 NNW 7 13 1015.1 - 0.0 - - - - - - -
21/02:00pm 19.4 NNW 8 11 1015.3 - 0.0 - - - - - - -
21/01:30pm 19.1 NNW 9 13 1015.4 - 0.0 - - - - - - -
21/01:00pm 19.1 NW 11 14 1015.7 - 0.0 - - - - - - -
21/12:30pm 18.9 NNW 8 11 1016.2 - 0.0 - - - - - - -
21/12:00pm 18.5 NNW 9 16 1016.7 - 0.0 - - - - - - -
21/11:30am 17.5 NNW 8 13 1017.0 - 0.0 - - - - - - -
21/11:00am 17.8 NNW 9 14 1017.5 - 0.0 - - - - - - -
21/10:30am 17.2 NNW 10 15 1017.8 - 0.0 - - - - - - -
21/10:00am 18.1 N 8 14 1018.1 - 0.0 - - - - - - -
21/09:30am 17.0 NNE 4 7 1018.3 - 0.0 - - - - - - -
21/09:00am 15.3 NNE 3 5 1018.3 - 0.0 - - - - - - -
21/08:30am 15.2 N 5 8 1018.6 - 0.0 - - - - - - -
21/08:00am 13.6 N 3 5 1018.4 - 0.0 - - - - - - -
21/07:30am 12.4 N 4 6 1018.4 - 0.0 - - - - - - -
21/07:00am 12.4 NNW 5 9 1018.1 - 0.0 - - - - - - -
21/06:30am 11.4 NNW 6 7 1018.0 - 0.0 - - - - - - -
21/06:00am 11.5 NNW 6 8 1017.8 - 0.0 - - - - - - -
21/05:30am 9.5 NW 3 5 1017.6 - 0.0 - - - - - - -
21/05:00am 8.9 CALM 0 0 1017.5 - 0.0 - - - - - - -
21/04:30am 9.1 CALM 0 2 1017.4 - 0.0 - - - - - - -
21/04:00am 8.8 N 1 3 1017.3 - 0.0 - - - - - - -
21/03:30am 8.0 N 1 2 1017.0 - 0.0 - - - - - - -
21/03:00am 8.6 CALM 0 0 1016.9 - 0.0 - - - - - - -
21/02:30am 9.3 CALM 0 0 1017.1 - 0.0 - - - - - - -
21/02:00am 8.5 CALM 0 2 1017.2 - 0.0 - - - - - - -
21/01:30am 8.4 S 2 4 1017.2 - 0.0 - - - - - - -
21/01:00am 8.4 CALM 0 0 1017.3 - 0.0 - - - - - - -
21/12:30am 8.2 SSW 2 3 1017.2 - 0.0 - - - - - - -
21/12:00am 8.6 W 2 3 1017.1 - 0.0 - - - - - - -
 
Date/Time
EST
Temp

°C
Wind Pressure Rain
since 9am
mm
Weather Cloud Vis
km
Sea
Height
m
Swell
Dir
 
Speed
knots
Gust
knots
hPa Trend Height
m
Period
s
Dir
20/11:30pm 8.5 WSW 2 3 1017.4 - 0.0 - - - - - - -
20/11:00pm 9.5 NW 3 4 1017.3 - 0.0 - - - - - - -
20/10:30pm 10.9 WNW 5 6 1017.5 - 0.0 - - - - - - -
20/10:00pm 11.9 W 4 6 1017.6 - 0.0 - - - - - - -
20/09:30pm 11.3 NW 5 6 1017.5 - 0.0 - - - - - - -
20/09:00pm 12.3 NW 5 6 1017.3 - 0.0 - - - - - - -
20/08:30pm 13.0 NW 5 7 1017.2 - 0.0 - - - - - - -
20/08:00pm 13.3 NW 5 6 1017.0 - 0.0 - - - - - - -
20/07:30pm 13.3 N 5 7 1016.8 - 0.0 - - - - - - -
20/07:00pm 13.2 N 3 4 1016.5 - 0.0 - - - - - - -
20/06:30pm 13.6 WNW 3 4 1016.4 - 0.0 - - - - - - -
20/06:00pm 14.4 WNW 5 7 1016.1 - 0.0 - - - - - - -
20/05:30pm 15.1 WNW 6 9 1015.9 - 0.0 - - - - - - -
20/05:00pm 15.6 W 7 11 1015.6 - 0.0 - - - - - - -
20/04:30pm 16.9 W 8 12 1015.5 - 0.0 - - - - - - -
20/04:00pm 17.1 W 12 16 1015.4 - 0.0 - - - - - - -
20/03:30pm 16.7 W 13 18 1015.4 - 0.0 - - - - - - -
20/03:00pm 17.1 W 16 20 1015.3 - 0.0 - - - - - - -
20/02:30pm 17.4 W 17 22 1015.1 - 0.0 - - - - - - -
20/02:00pm 17.0 W 16 23 1015.0 - 0.0 - - - - - - -
20/01:30pm 16.9 W 14 19 1015.2 - 0.0 - - - - - - -
20/01:00pm 16.0 W 12 19 1015.4 - 0.0 - - - - - - -
20/12:30pm 15.0 W 16 21 1015.9 - 0.0 - - - - - - -
20/12:00pm 15.2 WNW 14 19 1016.1 - 0.0 - - - - - - -
20/11:30am 15.0 NW 14 19 1016.3 - 0.0 - - - - - - -
20/11:00am 15.9 NW 15 22 1016.4 - 0.0 - - - - - - -
20/10:30am 16.2 NW 14 19 1016.4 - 0.0 - - - - - - -
20/10:00am 13.6 NW 11 15 1016.6 - 0.0 - - - - - - -
20/09:30am 13.4 NW 10 15 1016.8 - 0.0 - - - - - - -
20/09:00am 13.3 NW 9 13 1016.8 - 2.8 - - - - - - -
20/08:30am 12.6 NW 8 12 1016.7 - 2.8 - - - - - - -
20/08:00am 12.3 NNW 9 13 1016.5 - 2.8 - - - - - - -
20/07:30am 12.0 NW 8 11 1016.4 - 2.8 - - - - - - -
20/07:00am 12.1 NW 8 12 1016.1 - 2.8 - - - - - - -
20/06:30am 12.3 NW 12 17 1015.9 - 2.8 - - - - - - -
20/06:00am 12.2 NNW 8 11 1015.8 - 2.8 - - - - - - -
20/05:30am 12.3 NW 9 13 1015.6 - 2.8 - - - - - - -
20/05:00am 12.2 NW 10 12 1015.6 - 2.8 - - - - - - -
20/04:30am 12.1 NNW 8 11 1015.7 - 2.8 - - - - - - -
20/04:00am 12.1 NNW 7 11 1015.7 - 2.8 - - - - - - -
20/03:30am 12.0 NNW 7 9 1015.6 - 2.8 - - - - - - -
20/03:00am 11.7 NNW 5 7 1015.8 - 2.8 - - - - - - -
20/02:30am 12.1 NNW 7 10 1015.9 - 2.8 - - - - - - -
20/02:00am 11.9 NNW 8 11 1016.2 - 2.8 - - - - - - -
20/01:30am 11.8 NNW 7 9 1016.4 - 2.8 - - - - - - -
20/01:00am 11.7 NNW 7 10 1016.5 - 2.8 - - - - - - -
20/12:30am 11.1 N 3 4 1016.6 - 2.8 - - - - - - -
20/12:00am 10.9 NNW 5 7 1016.9 - 2.8 - - - - - - -
 
Date/Time
EST
Temp

°C
Wind Pressure Rain
since 9am
mm
Weather Cloud Vis
km
Sea
Height
m
Swell
Dir
 
Speed
knots
Gust
knots
hPa Trend Height
m
Period
s
Dir
19/11:30pm 10.7 N 4 6 1017.1 - 2.8 - - - - - - -
19/11:00pm 10.9 N 4 5 1017.3 - 2.8 - - - - - - -
19/10:30pm 10.9 NNW 5 7 1017.5 - 2.8 - - - - - - -
19/10:00pm 11.2 NW 7 9 1017.7 - 2.8 - - - - - - -
19/09:30pm 11.3 NW 9 13 1017.9 - 2.8 - - - - - - -
19/09:00pm 11.4 NW 5 6 1018.0 - 2.8 - - - - - - -
19/08:30pm 11.6 WNW 4 6 1018.0 - 2.8 - - - - - - -
19/08:00pm 11.2 WNW 5 7 1018.1 - 2.8 - - - - - - -
19/07:30pm 11.5 W 4 6 1018.1 - 2.8 - - - - - - -
19/07:00pm 9.9 WNW 5 6 1018.1 - 2.8 - - - - - - -
19/06:30pm 9.9 NW 5 6 1017.9 - 2.8 - - - - - - -
19/06:00pm 11.3 WNW 5 7 1017.8 - 2.8 - - - - - - -
19/05:30pm 13.3 WSW 8 11 1017.7 - 2.8 - - - - - - -
19/05:00pm 14.1 WSW 10 13 1017.7 - 2.8 - - - - - - -
19/04:30pm 13.8 WSW 11 16 1017.6 - 2.8 - - - - - - -
19/04:00pm 13.5 SW 11 16 1017.8 - 2.8 - - - - - - -
19/03:30pm 14.9 WSW 10 15 1017.7 - 2.8 - - - - - - -
19/03:00pm 14.3 WSW 11 14 1017.8 - 2.8 - - - - - - -
19/02:30pm 14.4 WSW 11 15 1017.7 - 2.8 - - - - - - -
19/02:00pm 15.2 SW 8 12 1017.8 - 2.8 - - - - - - -
19/01:30pm 15.5 SW 8 13 1018.0 - 2.8 - - - - - - -
19/01:00pm 14.1 SW 7 11 1018.2 - 2.8 - - - - - - -
19/12:30pm 14.5 WSW 9 13 1018.5 - 2.8 - - - - - - -
19/12:00pm 12.4 WSW 12 19 1018.9 - 2.6 Rain - - - - - -
19/11:30am 13.5 SW 6 8 1018.9 - 1.4 - - - - - - -
19/11:00am 12.6 W 12 16 1019.2 - 1.4 - - - - - - -
19/10:30am 12.8 SW 7 11 1019.1 - 1.2 - - - - - - -
19/10:00am 13.6 W 9 11 1019.1 - 0.6 - - - - - - -
19/09:30am 11.7 W 9 13 1019.2 - 0.6 - - - - - - -
19/09:00am 11.7 W 12 16 1019.0 - 3.6 Rain - - - - - -
19/08:30am 13.8 W 11 13 1018.6 - 2.0 - - - - - - -
19/08:00am 13.0 SW 10 12 1018.5 - 2.0 - - - - - - -
19/07:30am 11.7 SSW 8 11 1018.2 - 2.0 - - - - - - -
19/07:00am 12.8 SW 10 14 1017.8 - 2.0 - - - - - - -
19/06:30am 12.9 SW 13 18 1017.6 - 2.0 - - - - - - -
19/06:00am 12.9 SW 14 20 1017.6 - 2.0 - - - - - - -
19/05:30am 12.6 SW 14 19 1017.5 - 2.0 - - - - - - -
19/05:00am 12.9 WSW 14 20 1017.3 - 2.0 - - - - - - -
19/04:30am 12.9 SW 11 16 1017.1 - 2.0 - - - - - - -
19/04:00am 13.1 SW 13 18 1017.1 - 2.0 - - - - - - -
19/03:30am 13.1 WSW 13 17 1017.2 - 2.0 - - - - - - -
19/03:00am 13.3 SW 14 19 1017.3 - 2.0 - - - - - - -
19/02:30am 13.4 SW 13 18 1017.6 - 2.0 - - - - - - -
19/02:00am 13.1 WSW 13 18 1017.6 - 2.0 - - - - - - -
19/01:30am 12.7 W 15 18 1017.8 - 2.0 - - - - - - -
19/01:00am 13.3 SW 12 18 1017.8 - 2.0 - - - - - - -
19/12:30am 13.7 WSW 13 18 1017.7 - 2.0 - - - - - - -
19/12:00am 13.2 WSW 16 22 1017.9 - 2.0 - - - - - - -
 
Date/Time
EST
Temp

°C
Wind Pressure Rain
since 9am
mm
Weather Cloud Vis
km
Sea
Height
m
Swell
Dir
 
Speed
knots
Gust
knots
hPa Trend Height
m
Period
s
Dir
18/11:30pm 13.6 SW 16 23 1017.8 - 2.0 - - - - - - -
18/11:00pm 13.4 SW 15 21 1017.9 - 2.0 - - - - - - -
18/10:30pm 13.5 SW 12 19 1018.0 - 2.0 - - - - - - -
18/10:00pm 13.3 WSW 13 19 1018.1 - 2.0 - - - - - - -
18/09:30pm 12.0 WSW 9 12 1018.2 - 2.0 - - - - - - -
18/09:00pm 13.0 WSW 17 25 1017.9 - 2.0 - - - - - - -

Other Formats:

Comma delimited format used in spreadsheet applications
http://www.bom.gov.au/fwo/IDV60701/IDV60701.94911.axf

JavaScript Object Notation format (JSON) in row-major order
http://www.bom.gov.au/fwo/IDV60701/IDV60701.94911.json